Redruth, United Kingdom
Current Conditions -  °F | °C
As of 9:50 PM on Friday 24 Oct 2014 (Local Time) from EGDR Reporting Station
Broken Clouds Broken Clouds  
Wind Chill: 54°   Ceiling: 4000
Heat Index: 54°   Visibility: 6mi
Dew Point: 45°   Wind: 8mph
Humidity: 72%   Direction: 280°W
Pressure: 30.03"   Gusts: NA
Location:  50.23°N, 5.23°W
Report Text: EGDR 242050Z 28007KT 9999 FEW020 BKN040 12/07 Q1017 BLU
Loading
Personal Weather Stations






























Interactive Weather Map New forecast layout! Learn more

10-Day Weather Forecast

Advertisements
Track Severe Weather on mobile